Terminal Aerodrome Forecast
Issued by NWS Chicago, IL

Home | Current Version | Previous Version | Graphics & Text | Print | Product List | Glossary On
Versions: 1 2 3 4 5 6 7 8 9 10 11 12 13 14 15 16 17 18 19 20 21 22 23 24 25 26 27 28 29 30 31
000
FTUS43 KLOT 291358 AAA
TAFRFD
TAF AMD
KRFD 291358Z 2914/3012 35010KT P6SM SCT015 BKN080
     FM291500 31011G16KT P6SM FEW015 BKN150
     FM291600 29013G20KT P6SM FEW250
     FM300100 26006KT P6SM SKC=

USA.gov is the U.S. government's official web portal to all federal, state and local government web resources and services.